Time;durP1;ratioP1;P1;durP2;ratioP2;P2;SDS_P1;SDS_P2;PMS_P1;PMS_P2;Temp;Humidity;BMP_temperature;BMP_pressure;BME280_temperature;BME280_humidity;BME280_pressure;Samples;Min_cycle;Max_cycle;Signal;HPM_P1;HPM_P2
2022/11/18 00:00:16;;;;;;;;;;;19.00;53.60;;;;;;6154168;23;19987;-71
2022/11/18 00:02:43;;;;;;;;;;;19.00;55.20;;;;;;6155140;23;19990;-71
2022/11/18 00:05:09;;;;;;;;;;;19.10;54.50;;;;;;6155102;23;19905;-72
2022/11/18 00:07:36;;;;;;;;;;;19.20;54.40;;;;;;6155308;23;19951;-71
2022/11/18 00:10:03;;;;;;;;;;;19.30;54.20;;;;;;6155108;23;19927;-71
2022/11/18 00:15:14;;;;;;;;;;;19.30;55.20;;;;;;6153216;23;19912;-71
2022/11/18 00:17:41;;;;;;;;;;;19.40;54.10;;;;;;6155079;23;19912;-71
2022/11/18 00:20:07;;;;;;;;;;;19.30;54.70;;;;;;6154416;23;20259;-70
2022/11/18 00:22:34;;;;;;;;;;;19.30;56.80;;;;;;6154513;23;19905;-71
2022/11/18 00:25:00;;;;;;;;;;;19.50;55.40;;;;;;6154261;23;19905;-70
2022/11/18 00:27:30;;;;;;;;;;;19.60;55.60;;;;;;6154814;23;19913;-71
2022/11/18 00:29:57;;;;;;;;;;;19.50;54.40;;;;;;6155487;23;19959;-70
2022/11/18 00:32:23;;;;;;;;;;;19.40;52.60;;;;;;6128696;23;20244;-70
2022/11/18 00:34:50;;;;;;;;;;;19.50;53.70;;;;;;6154217;23;19959;-70
2022/11/18 00:37:16;;;;;;;;;;;19.50;54.90;;;;;;6154881;23;19912;-71
2022/11/18 00:39:43;;;;;;;;;;;19.30;50.90;;;;;;6154566;23;19908;-70
2022/11/18 00:44:54;;;;;;;;;;;19.20;53.50;;;;;;6152715;23;19983;-69
2022/11/18 00:47:21;;;;;;;;;;;19.20;54.70;;;;;;6154064;23;19975;-70
2022/11/18 00:49:47;;;;;;;;;;;19.30;53.10;;;;;;6154939;23;20255;-70
2022/11/18 01:14:08;;;;;;;;;;;19.30;55.80;;;;;;6115487;23;19984;-70
2022/11/18 01:16:35;;;;;;;;;;;19.20;57.30;;;;;;6147726;23;19920;-71
2022/11/18 01:19:01;;;;;;;;;;;19.10;56.40;;;;;;6153859;23;19992;-70
2022/11/18 01:21:28;;;;;;;;;;;19.20;55.70;;;;;;6153856;23;19909;-71
2022/11/18 01:23:55;;;;;;;;;;;19.20;56.60;;;;;;6127360;23;19951;-71
2022/11/18 01:26:21;;;;;;;;;;;19.30;56.30;;;;;;6152931;23;19991;-70
2022/11/18 01:28:48;;;;;;;;;;;19.20;54.20;;;;;;6153100;23;19905;-71
2022/11/18 01:31:15;;;;;;;;;;;19.20;56.50;;;;;;6153843;23;19904;-72
2022/11/18 01:33:42;;;;;;;;;;;19.20;55.90;;;;;;6154852;23;20347;-71
2022/11/18 01:36:19;;;;;;;;;;;19.20;54.80;;;;;;6155637;23;19979;-69
2022/11/18 01:38:45;;;;;;;;;;;19.20;54.90;;;;;;6154724;23;19905;-72
2022/11/18 01:41:12;;;;;;;;;;;19.30;56.20;;;;;;6154253;23;19904;-71
2022/11/18 01:43:49;;;;;;;;;;;19.30;50.80;;;;;;6153802;23;19905;-72
2022/11/18 01:46:16;;;;;;;;;;;19.20;50.00;;;;;;6127169;23;19914;-73
2022/11/18 01:48:42;;;;;;;;;;;19.20;49.90;;;;;;6153822;23;19983;-72
2022/11/18 01:51:10;;;;;;;;;;;19.20;49.30;;;;;;6152984;23;19911;-72
2022/11/18 01:53:39;;;;;;;;;;;19.10;49.40;;;;;;6126426;23;19905;-71
2022/11/18 01:56:07;;;;;;;;;;;19.20;48.80;;;;;;6128289;23;19924;-71
2022/11/18 01:58:35;;;;;;;;;;;19.20;50.50;;;;;;6153802;23;19909;-71
2022/11/18 02:01:02;;;;;;;;;;;19.20;51.80;;;;;;6156130;23;19951;-71
2022/11/18 02:03:29;;;;;;;;;;;19.30;53.70;;;;;;6130334;23;19916;-72
2022/11/18 02:05:55;;;;;;;;;;;19.30;51.70;;;;;;6130185;23;20232;-72
2022/11/18 02:08:22;;;;;;;;;;;19.40;51.50;;;;;;6156778;23;19943;-72
2022/11/18 02:10:49;;;;;;;;;;;19.40;50.80;;;;;;6156361;23;19956;-72
2022/11/18 02:13:15;;;;;;;;;;;19.50;53.20;;;;;;6156344;23;19912;-72
2022/11/18 04:13:14;;;;;;;;;;;19.30;58.20;;;;;;6149128;23;19966;-73
2022/11/18 04:15:41;;;;;;;;;;;19.20;55.50;;;;;;6154648;23;19979;-72
2022/11/18 04:18:07;;;;;;;;;;;19.10;55.20;;;;;;6154769;23;19909;-72
2022/11/18 04:20:36;;;;;;;;;;;19.20;56.80;;;;;;6154979;23;19986;-72
2022/11/18 04:23:03;;;;;;;;;;;19.30;55.10;;;;;;6155057;23;19904;-73
2022/11/18 04:25:30;;;;;;;;;;;19.20;57.30;;;;;;6153113;23;19916;-69
2022/11/18 04:27:56;;;;;;;;;;;19.20;55.40;;;;;;6152018;23;19909;-72
2022/11/18 04:30:23;;;;;;;;;;;19.20;57.20;;;;;;6151815;23;19967;-70
2022/11/18 04:32:50;;;;;;;;;;;19.30;56.60;;;;;;6151759;23;19927;-70
2022/11/18 04:35:16;;;;;;;;;;;19.20;54.80;;;;;;6151603;23;19971;-70
2022/11/18 04:37:43;;;;;;;;;;;19.20;55.40;;;;;;6151513;23;19988;-71
2022/11/18 04:40:10;;;;;;;;;;;19.30;58.90;;;;;;6151119;23;19905;-70
2022/11/18 04:42:37;;;;;;;;;;;19.20;56.20;;;;;;6151621;23;19908;-70
2022/11/18 04:45:04;;;;;;;;;;;19.20;57.70;;;;;;6125386;23;19921;-70
2022/11/18 04:47:30;;;;;;;;;;;19.20;59.40;;;;;;6150491;23;19916;-74
2022/11/18 04:49:57;;;;;;;;;;;19.20;58.80;;;;;;6150335;23;19909;-71
2022/11/18 04:52:24;;;;;;;;;;;19.20;57.00;;;;;;6150375;23;19912;-71
2022/11/18 04:54:50;;;;;;;;;;;19.20;59.30;;;;;;6150725;23;19953;-71
2022/11/18 04:57:17;;;;;;;;;;;19.20;56.10;;;;;;6151801;23;19967;-70
2022/11/18 04:59:43;;;;;;;;;;;19.20;54.80;;;;;;6151414;23;19968;-70
2022/11/18 05:02:10;;;;;;;;;;;19.10;54.20;;;;;;6150921;23;20087;-71
2022/11/18 05:04:37;;;;;;;;;;;19.30;54.80;;;;;;6151474;23;19909;-70
2022/11/18 05:07:03;;;;;;;;;;;19.20;56.30;;;;;;6151896;23;19944;-70
2022/11/18 05:09:30;;;;;;;;;;;19.20;61.00;;;;;;6151327;23;19909;-70
2022/11/18 05:14:41;;;;;;;;;;;19.20;60.30;;;;;;6154197;23;20251;-69
2022/11/18 05:17:08;;;;;;;;;;;19.10;58.70;;;;;;6153761;23;20324;-70
2022/11/18 05:19:36;;;;;;;;;;;19.10;58.60;;;;;;6153691;23;19909;-70
2022/11/18 05:22:03;;;;;;;;;;;19.20;60.90;;;;;;6153379;23;19905;-70
2022/11/18 05:24:30;;;;;;;;;;;19.20;60.80;;;;;;6154366;23;20011;-70
2022/11/18 05:26:56;;;;;;;;;;;19.00;60.70;;;;;;6154141;23;19920;-69
2022/11/18 05:29:23;;;;;;;;;;;19.00;61.20;;;;;;6152717;23;19912;-71
2022/11/18 05:31:49;;;;;;;;;;;19.00;60.70;;;;;;6154834;23;19912;-69
2022/11/18 05:34:16;;;;;;;;;;;18.90;61.60;;;;;;6153027;23;19912;-69
2022/11/18 05:36:43;;;;;;;;;;;18.90;61.90;;;;;;6154401;23;19905;-70
2022/11/18 05:39:09;;;;;;;;;;;18.90;62.90;;;;;;6154787;23;19909;-69
2022/11/18 05:44:21;;;;;;;;;;;18.80;60.50;;;;;;6155003;23;19968;-69
2022/11/18 05:46:47;;;;;;;;;;;18.80;57.40;;;;;;6154485;23;19955;-70
2022/11/18 05:49:14;;;;;;;;;;;18.80;58.40;;;;;;6154718;23;19983;-70
2022/11/18 05:51:40;;;;;;;;;;;18.80;58.00;;;;;;6153915;23;20184;-70
2022/11/18 05:54:08;;;;;;;;;;;18.90;58.30;;;;;;6151760;23;19908;-70
2022/11/18 05:56:38;;;;;;;;;;;18.90;55.90;;;;;;6152652;23;19919;-70
2022/11/18 05:59:05;;;;;;;;;;;18.90;57.20;;;;;;6152977;23;20236;-69
2022/11/18 06:01:31;;;;;;;;;;;19.10;58.00;;;;;;6153385;23;19912;-71
2022/11/18 06:03:58;;;;;;;;;;;19.10;55.50;;;;;;6152608;23;19911;-70
2022/11/18 06:06:24;;;;;;;;;;;19.10;57.50;;;;;;6153228;23;19999;-71
2022/11/18 06:08:55;;;;;;;;;;;19.00;58.20;;;;;;6127217;23;19905;-71
2022/11/18 06:11:22;;;;;;;;;;;19.00;58.30;;;;;;6153538;23;19904;-70
2022/11/18 06:13:56;;;;;;;;;;;19.00;58.50;;;;;;6153199;23;20391;-71
2022/11/18 06:16:24;;;;;;;;;;;18.90;60.30;;;;;;6152532;23;19926;-70
2022/11/18 06:18:51;;;;;;;;;;;18.90;59.40;;;;;;6127566;23;19904;-70
2022/11/18 06:21:17;;;;;;;;;;;18.90;59.30;;;;;;6153169;23;20240;-69
2022/11/18 06:23:44;;;;;;;;;;;19.00;61.60;;;;;;6152679;23;19923;-70
2022/11/18 06:26:12;;;;;;;;;;;19.00;61.80;;;;;;6127948;23;20279;-71
2022/11/18 06:28:38;;;;;;;;;;;19.00;61.90;;;;;;6154242;23;19911;-70
2022/11/18 06:31:05;;;;;;;;;;;18.90;61.40;;;;;;6154356;23;19959;-70
2022/11/18 06:33:31;;;;;;;;;;;18.80;61.30;;;;;;6155765;23;19905;-70
2022/11/18 06:35:58;;;;;;;;;;;18.80;62.70;;;;;;6156263;23;19909;-70
2022/11/18 06:38:25;;;;;;;;;;;18.80;63.50;;;;;;6156166;23;19961;-70
2022/11/18 06:40:51;;;;;;;;;;;18.70;62.40;;;;;;6155920;23;19915;-70
2022/11/18 06:48:47;;;;;;;;;;;18.70;63.10;;;;;;6156120;23;20251;-71
2022/11/18 06:51:14;;;;;;;;;;;18.70;63.90;;;;;;6155918;23;19911;-71
2022/11/18 06:53:40;;;;;;;;;;;18.60;63.90;;;;;;6156155;23;19959;-70
2022/11/18 06:56:08;;;;;;;;;;;18.70;64.20;;;;;;6156338;23;19905;-71
2022/11/18 06:58:34;;;;;;;;;;;18.70;62.70;;;;;;6130308;23;19912;-72
2022/11/18 07:01:14;;;;;;;;;;;18.60;63.40;;;;;;6155732;23;19909;-70
2022/11/18 07:03:41;;;;;;;;;;;18.50;63.40;;;;;;6155946;23;19912;-71
2022/11/18 07:06:08;;;;;;;;;;;18.50;64.40;;;;;;6156020;23;19913;-70
2022/11/18 07:08:37;;;;;;;;;;;18.50;64.60;;;;;;6156228;23;19905;-70
2022/11/18 07:11:04;;;;;;;;;;;18.50;63.90;;;;;;6156464;23;19905;-71
2022/11/18 07:13:34;;;;;;;;;;;18.60;63.70;;;;;;6155859;23;19924;-71
2022/11/18 07:16:04;;;;;;;;;;;18.50;64.40;;;;;;6155769;23;20031;-70
2022/11/18 07:18:31;;;;;;;;;;;18.50;64.50;;;;;;6156058;23;19959;-70
2022/11/18 07:21:00;;;;;;;;;;;18.50;64.90;;;;;;6155906;23;19924;-71
2022/11/18 07:23:27;;;;;;;;;;;18.50;64.70;;;;;;6155738;23;19904;-70
2022/11/18 07:25:54;;;;;;;;;;;18.50;65.70;;;;;;6155496;23;19940;-70
2022/11/18 07:28:21;;;;;;;;;;;18.50;65.20;;;;;;6105458;23;19908;-71
2022/11/18 07:30:48;;;;;;;;;;;18.40;64.60;;;;;;6155833;23;20277;-71
2022/11/18 07:33:14;;;;;;;;;;;18.40;65.20;;;;;;6155524;23;19912;-70
2022/11/18 07:35:41;;;;;;;;;;;18.50;64.70;;;;;;6155765;23;20007;-71
2022/11/18 07:38:08;;;;;;;;;;;18.40;64.20;;;;;;6155932;23;19932;-70
2022/11/18 07:40:34;;;;;;;;;;;18.40;65.50;;;;;;6129593;23;19984;-70
2022/11/18 07:43:01;;;;;;;;;;;18.40;65.80;;;;;;6155835;23;19932;-69
2022/11/18 07:45:27;;;;;;;;;;;18.40;64.60;;;;;;6129593;23;19987;-70
2022/11/18 07:47:54;;;;;;;;;;;18.30;65.30;;;;;;6156180;23;19908;-70
2022/11/18 07:50:21;;;;;;;;;;;18.20;65.80;;;;;;6155513;23;20221;-70
2022/11/18 07:52:47;;;;;;;;;;;18.30;66.20;;;;;;6155794;23;19905;-71
2022/11/18 07:55:14;;;;;;;;;;;18.30;66.90;;;;;;6155893;23;19905;-70
2022/11/18 07:57:40;;;;;;;;;;;18.30;67.60;;;;;;6155753;23;19998;-71
2022/11/18 08:00:07;;;;;;;;;;;18.20;67.50;;;;;;6155292;23;19960;-70
2022/11/18 08:02:34;;;;;;;;;;;18.20;68.00;;;;;;6155676;23;19946;-71
2022/11/18 08:05:00;;;;;;;;;;;18.10;67.30;;;;;;6155723;23;19955;-70
2022/11/18 08:07:27;;;;;;;;;;;18.10;67.30;;;;;;6155707;23;19959;-70
2022/11/18 08:09:54;;;;;;;;;;;18.10;67.80;;;;;;6155698;23;19943;-70
2022/11/18 08:12:20;;;;;;;;;;;18.10;67.70;;;;;;6155030;23;19921;-71
2022/11/18 08:14:47;;;;;;;;;;;18.10;68.40;;;;;;6155791;23;19916;-71
2022/11/18 08:17:13;;;;;;;;;;;18.10;68.00;;;;;;6155444;23;20275;-71
2022/11/18 16:20:06;;;;;;;;;;;15.20;83.20;;;;;;6124417;23;19927;-64
2022/11/18 16:22:33;;;;;;;;;;;15.20;83.30;;;;;;6125679;23;19916;-64
2022/11/18 16:24:59;;;;;;;;;;;15.20;83.20;;;;;;6125777;23;19940;-64
2022/11/18 16:27:26;;;;;;;;;;;15.30;83.10;;;;;;6125808;23;19913;-64
2022/11/18 16:29:52;;;;;;;;;;;15.30;83.30;;;;;;6125999;23;19905;-64
2022/11/18 16:32:19;;;;;;;;;;;15.20;83.30;;;;;;6125607;23;20369;-64
2022/11/18 16:34:46;;;;;;;;;;;15.20;83.50;;;;;;6125706;23;19959;-64
2022/11/18 16:37:12;;;;;;;;;;;15.20;83.50;;;;;;6125824;23;20328;-67
2022/11/18 16:39:39;;;;;;;;;;;15.20;83.60;;;;;;6100182;23;19984;-66
2022/11/18 16:42:05;;;;;;;;;;;15.10;83.70;;;;;;6099665;23;19988;-64
2022/11/18 16:44:32;;;;;;;;;;;15.20;83.90;;;;;;6125523;23;19905;-64
2022/11/18 16:46:59;;;;;;;;;;;15.10;84.00;;;;;;6125747;23;20271;-64
2022/11/18 16:49:26;;;;;;;;;;;15.10;83.90;;;;;;6125814;23;19909;-64
2022/11/18 16:51:53;;;;;;;;;;;15.00;84.00;;;;;;6099961;23;19909;-64
2022/11/18 16:54:21;;;;;;;;;;;15.00;84.20;;;;;;6125516;23;19976;-64
2022/11/18 16:56:48;;;;;;;;;;;15.00;84.30;;;;;;6125925;23;19909;-64
2022/11/18 16:59:16;;;;;;;;;;;15.00;84.30;;;;;;6099863;23;20309;-66
2022/11/18 17:01:42;;;;;;;;;;;15.00;84.20;;;;;;6100211;23;19909;-66
2022/11/18 17:04:12;;;;;;;;;;;15.00;84.20;;;;;;6125828;23;19905;-66
2022/11/18 17:06:39;;;;;;;;;;;15.00;84.20;;;;;;6100392;23;19913;-63
2022/11/18 17:09:05;;;;;;;;;;;15.00;84.20;;;;;;6125282;23;20347;-64
2022/11/18 17:11:32;;;;;;;;;;;15.00;84.30;;;;;;6125321;23;19954;-64
2022/11/18 17:13:59;;;;;;;;;;;15.00;84.30;;;;;;6125397;23;19912;-64
2022/11/18 17:16:25;;;;;;;;;;;15.00;84.30;;;;;;6125640;23;19917;-64
2022/11/18 17:18:55;;;;;;;;;;;15.00;84.30;;;;;;6125113;23;19980;-64
2022/11/18 17:21:22;;;;;;;;;;;15.00;84.20;;;;;;6099487;23;19929;-64
2022/11/18 17:23:49;;;;;;;;;;;15.00;84.10;;;;;;6125227;23;19904;-64
2022/11/18 17:26:17;;;;;;;;;;;15.00;84.10;;;;;;6125456;23;19913;-66
2022/11/18 17:28:44;;;;;;;;;;;14.90;84.00;;;;;;6125497;23;19905;-66
2022/11/18 17:31:11;;;;;;;;;;;14.90;83.90;;;;;;6099683;23;19905;-66
2022/11/18 17:33:38;;;;;;;;;;;15.00;84.00;;;;;;6125541;23;19913;-67
2022/11/18 17:36:05;;;;;;;;;;;15.00;83.70;;;;;;6125346;23;20000;-64
2022/11/18 17:38:35;;;;;;;;;;;15.00;83.50;;;;;;6099437;23;19909;-64
2022/11/18 17:41:02;;;;;;;;;;;15.10;83.20;;;;;;6125100;23;19905;-64
2022/11/18 17:43:28;;;;;;;;;;;15.10;83.10;;;;;;6125432;23;19913;-64
2022/11/18 17:45:56;;;;;;;;;;;15.10;82.90;;;;;;6099244;23;20036;-64
2022/11/18 17:48:23;;;;;;;;;;;15.10;83.30;;;;;;6125104;23;20248;-64
2022/11/18 17:50:49;;;;;;;;;;;15.10;83.10;;;;;;6125086;23;19975;-64
2022/11/18 17:53:16;;;;;;;;;;;15.10;83.30;;;;;;6125338;23;19940;-64
2022/11/18 17:55:43;;;;;;;;;;;15.10;83.20;;;;;;6125210;23;19953;-63
2022/11/18 17:58:10;;;;;;;;;;;15.00;83.10;;;;;;6125350;23;20320;-64
2022/11/18 18:00:36;;;;;;;;;;;15.10;82.90;;;;;;6124954;23;19905;-64
2022/11/18 18:03:03;;;;;;;;;;;15.00;82.70;;;;;;6125082;23;19956;-64
2022/11/18 18:05:29;;;;;;;;;;;15.00;82.70;;;;;;6125301;23;20031;-64
2022/11/18 18:07:56;;;;;;;;;;;15.00;82.70;;;;;;6125128;23;20328;-64
2022/11/18 18:10:23;;;;;;;;;;;14.90;82.90;;;;;;6125483;23;19921;-64
2022/11/18 18:15:34;;;;;;;;;;;14.80;83.00;;;;;;6125410;23;19968;-64
2022/11/18 18:18:01;;;;;;;;;;;14.80;83.30;;;;;;6124830;23;19992;-64
2022/11/18 18:20:28;;;;;;;;;;;14.80;83.40;;;;;;6124915;23;19963;-64
2022/11/18 18:22:55;;;;;;;;;;;14.80;83.40;;;;;;6099585;23;19928;-64
2022/11/18 18:25:22;;;;;;;;;;;14.70;83.50;;;;;;6125203;23;19912;-64
2022/11/18 18:27:49;;;;;;;;;;;14.70;83.40;;;;;;6099112;23;20043;-64
2022/11/18 18:30:15;;;;;;;;;;;14.70;83.60;;;;;;6126558;23;20120;-64
2022/11/18 18:32:42;;;;;;;;;;;14.70;83.80;;;;;;6127010;23;19913;-64
2022/11/18 18:35:10;;;;;;;;;;;14.70;84.00;;;;;;6126916;23;20027;-64
2022/11/18 18:37:36;;;;;;;;;;;14.70;84.00;;;;;;6127354;23;20299;-64
2022/11/18 18:40:03;;;;;;;;;;;14.70;84.10;;;;;;6126806;23;19980;-64
2022/11/18 18:42:30;;;;;;;;;;;14.70;84.00;;;;;;6127042;23;19912;-64
2022/11/18 18:47:41;;;;;;;;;;;14.80;84.30;;;;;;6126605;23;19964;-64
2022/11/18 18:50:08;;;;;;;;;;;14.70;84.30;;;;;;6126552;23;19908;-64
2022/11/18 18:52:34;;;;;;;;;;;14.70;84.40;;;;;;6126811;23;19952;-63
2022/11/18 18:55:01;;;;;;;;;;;14.70;84.60;;;;;;6101099;23;20280;-64
2022/11/18 18:57:28;;;;;;;;;;;14.80;84.60;;;;;;6127127;23;19943;-64
2022/11/18 18:59:55;;;;;;;;;;;14.90;84.50;;;;;;6126417;23;19904;-64
2022/11/18 19:02:21;;;;;;;;;;;15.10;84.60;;;;;;6126731;23;19905;-64
2022/11/18 19:04:48;;;;;;;;;;;15.20;84.10;;;;;;6101396;23;20232;-64
2022/11/18 19:07:16;;;;;;;;;;;15.30;84.00;;;;;;6126512;23;20345;-64
2022/11/18 19:09:42;;;;;;;;;;;15.30;84.00;;;;;;6126334;23;20212;-64
2022/11/18 19:14:54;;;;;;;;;;;15.50;83.90;;;;;;6126782;23;19915;-64
2022/11/18 19:17:20;;;;;;;;;;;15.60;83.60;;;;;;6126795;23;19940;-65
2022/11/18 19:22:32;;;;;;;;;;;15.70;83.20;;;;;;6126597;23;19995;-66
2022/11/18 19:24:58;;;;;;;;;;;15.70;83.00;;;;;;6126632;23;19905;-66
2022/11/18 19:27:25;;;;;;;;;;;15.70;82.90;;;;;;6100324;23;19920;-66
2022/11/18 19:29:52;;;;;;;;;;;15.80;82.70;;;;;;6100583;23;19975;-66
2022/11/18 19:32:18;;;;;;;;;;;15.80;82.60;;;;;;6126408;23;19909;-66
2022/11/18 19:34:45;;;;;;;;;;;16.00;82.40;;;;;;6100872;23;19904;-66
2022/11/18 19:37:11;;;;;;;;;;;16.00;82.60;;;;;;6126489;23;19912;-66
2022/11/18 19:39:38;;;;;;;;;;;16.00;82.30;;;;;;6126264;23;19932;-66
2022/11/18 19:42:05;;;;;;;;;;;16.00;82.30;;;;;;6126038;23;20321;-66
2022/11/18 19:44:31;;;;;;;;;;;16.00;82.20;;;;;;6126343;23;19905;-66
2022/11/18 19:46:58;;;;;;;;;;;15.90;82.30;;;;;;6126369;23;19965;-66
2022/11/18 19:49:24;;;;;;;;;;;15.90;82.50;;;;;;6126353;23;19953;-65
2022/11/18 19:51:51;;;;;;;;;;;15.90;82.40;;;;;;6100378;23;19909;-66
2022/11/18 19:54:18;;;;;;;;;;;16.00;82.70;;;;;;6126365;23;19905;-66
2022/11/18 19:56:44;;;;;;;;;;;16.10;82.50;;;;;;6126105;23;19931;-66
2022/11/18 19:59:14;;;;;;;;;;;16.10;82.30;;;;;;6126192;23;20352;-65
2022/11/18 20:01:40;;;;;;;;;;;16.10;82.20;;;;;;6100514;23;19968;-66
2022/11/18 20:04:07;;;;;;;;;;;16.20;82.30;;;;;;6125721;23;20313;-66
2022/11/18 20:06:34;;;;;;;;;;;16.20;81.90;;;;;;6126048;23;19920;-66
2022/11/18 20:09:01;;;;;;;;;;;16.20;81.90;;;;;;6125934;23;19920;-66
2022/11/18 20:11:28;;;;;;;;;;;16.20;81.70;;;;;;6126333;23;20162;-66
2022/11/18 20:13:54;;;;;;;;;;;16.30;81.50;;;;;;6100614;23;19912;-66
2022/11/18 20:16:22;;;;;;;;;;;16.30;81.40;;;;;;6126413;23;19912;-66
2022/11/18 20:18:52;;;;;;;;;;;16.40;81.10;;;;;;6099810;23;19917;-66
2022/11/18 20:21:19;;;;;;;;;;;16.50;81.90;;;;;;6100204;23;19909;-65
2022/11/18 20:23:46;;;;;;;;;;;16.60;80.80;;;;;;6100322;23;19959;-66
2022/11/18 20:26:13;;;;;;;;;;;16.70;81.10;;;;;;6100126;23;19912;-66
2022/11/18 20:28:40;;;;;;;;;;;16.70;81.10;;;;;;6125771;23;19960;-66
2022/11/18 20:31:08;;;;;;;;;;;16.70;79.60;;;;;;6125773;23;19905;-66
2022/11/18 20:33:35;;;;;;;;;;;16.70;79.50;;;;;;6125653;23;19905;-66
2022/11/18 20:36:08;;;;;;;;;;;16.70;79.30;;;;;;6100015;23;19905;-66
2022/11/18 20:38:35;;;;;;;;;;;16.70;78.50;;;;;;6100073;23;19932;-66
2022/11/18 20:41:02;;;;;;;;;;;16.80;78.80;;;;;;6125814;23;19933;-66
2022/11/18 20:43:29;;;;;;;;;;;16.90;79.00;;;;;;6099817;23;19905;-65
2022/11/18 20:45:56;;;;;;;;;;;17.00;78.50;;;;;;6125249;23;19905;-66
2022/11/18 20:48:22;;;;;;;;;;;17.20;77.40;;;;;;6125616;23;20275;-66
2022/11/18 20:50:49;;;;;;;;;;;17.30;77.00;;;;;;6125358;23;19983;-66
2022/11/18 20:53:16;;;;;;;;;;;17.30;77.40;;;;;;6125527;23;19936;-66
2022/11/18 20:55:42;;;;;;;;;;;17.40;76.90;;;;;;6100105;23;20233;-65
2022/11/18 20:58:09;;;;;;;;;;;17.50;77.20;;;;;;6125863;23;19905;-66
2022/11/18 21:00:36;;;;;;;;;;;17.70;76.50;;;;;;6125901;23;19928;-66
2022/11/18 21:03:02;;;;;;;;;;;17.90;76.30;;;;;;6125775;23;19947;-66
2022/11/18 21:05:29;;;;;;;;;;;18.20;75.50;;;;;;6125804;23;19933;-66
2022/11/18 21:07:56;;;;;;;;;;;18.30;73.60;;;;;;6125810;23;19912;-66
2022/11/18 21:10:24;;;;;;;;;;;18.50;74.10;;;;;;6125551;23;20392;-66
2022/11/18 21:15:35;;;;;;;;;;;18.70;73.20;;;;;;6125600;23;20403;-66
2022/11/18 21:18:02;;;;;;;;;;;18.80;73.40;;;;;;6125254;23;19912;-66
2022/11/18 21:23:13;;;;;;;;;;;18.70;71.80;;;;;;6125694;23;19920;-66
2022/11/18 21:25:39;;;;;;;;;;;18.70;71.80;;;;;;6125599;23;20324;-66
2022/11/18 21:28:06;;;;;;;;;;;18.70;71.40;;;;;;6125419;23;19995;-66
2022/11/18 21:30:33;;;;;;;;;;;18.80;71.30;;;;;;6125367;23;19905;-66
2022/11/18 21:32:59;;;;;;;;;;;18.80;71.20;;;;;;6125512;23;19905;-66
2022/11/18 21:35:26;;;;;;;;;;;19.00;71.20;;;;;;6125299;23;19912;-66
2022/11/18 21:37:52;;;;;;;;;;;19.10;70.40;;;;;;6125314;23;20337;-66
2022/11/18 21:40:19;;;;;;;;;;;19.20;70.10;;;;;;6099399;23;20241;-66
2022/11/18 21:42:45;;;;;;;;;;;19.20;70.10;;;;;;6125435;23;19912;-66
2022/11/18 21:45:12;;;;;;;;;;;19.20;70.20;;;;;;6125269;23;19905;-66
2022/11/18 21:47:39;;;;;;;;;;;19.10;69.80;;;;;;6125034;23;19966;-66
2022/11/18 21:50:06;;;;;;;;;;;18.90;69.60;;;;;;6125469;23;19917;-66
2022/11/18 21:52:32;;;;;;;;;;;18.90;70.30;;;;;;6124991;23;19959;-66
2022/11/18 21:55:00;;;;;;;;;;;18.90;70.90;;;;;;6125136;23;19905;-66
2022/11/18 21:57:27;;;;;;;;;;;18.90;70.40;;;;;;6125277;23;19913;-66
2022/11/18 21:59:54;;;;;;;;;;;18.80;70.20;;;;;;6099355;23;19932;-66
2022/11/18 22:02:20;;;;;;;;;;;18.90;69.60;;;;;;6125619;23;19987;-66
2022/11/18 22:04:53;;;;;;;;;;;19.00;70.30;;;;;;6127456;23;19905;-66
2022/11/18 22:07:20;;;;;;;;;;;19.20;69.40;;;;;;6127162;23;20395;-66
2022/11/18 22:09:47;;;;;;;;;;;19.30;69.40;;;;;;6127117;23;19909;-66
2022/11/18 22:12:13;;;;;;;;;;;19.30;68.10;;;;;;6127191;23;19975;-66
2022/11/18 22:14:40;;;;;;;;;;;19.40;68.50;;;;;;6127042;23;20299;-66
2022/11/18 22:17:06;;;;;;;;;;;19.50;68.80;;;;;;6127662;23;19967;-66
2022/11/18 22:19:33;;;;;;;;;;;19.60;68.70;;;;;;6126701;23;19951;-66
2022/11/18 22:22:00;;;;;;;;;;;19.70;67.50;;;;;;6127204;23;19905;-66
2022/11/18 22:24:27;;;;;;;;;;;19.80;67.30;;;;;;6101368;23;19912;-66
2022/11/18 22:26:53;;;;;;;;;;;19.90;67.30;;;;;;6126901;23;19917;-66
2022/11/18 22:29:20;;;;;;;;;;;20.10;66.00;;;;;;6126926;23;19905;-66
2022/11/18 22:31:46;;;;;;;;;;;20.20;65.90;;;;;;6126830;23;19912;-66
2022/11/18 22:34:13;;;;;;;;;;;20.20;63.70;;;;;;6126632;23;19933;-66
2022/11/18 22:36:40;;;;;;;;;;;20.30;64.80;;;;;;6127004;23;20291;-66
2022/11/18 22:39:06;;;;;;;;;;;20.30;63.20;;;;;;6126914;23;19912;-67
2022/11/18 22:44:17;;;;;;;;;;;20.60;65.00;;;;;;6127428;23;20251;-67
2022/11/18 22:46:44;;;;;;;;;;;20.70;63.90;;;;;;6126748;23;19999;-66
2022/11/18 22:49:11;;;;;;;;;;;20.70;62.30;;;;;;6101178;23;19905;-66
2022/11/18 22:51:37;;;;;;;;;;;20.80;62.50;;;;;;6127144;23;19904;-66
2022/11/18 22:54:04;;;;;;;;;;;20.90;62.10;;;;;;6101287;23;19921;-66
2022/11/18 22:56:31;;;;;;;;;;;20.80;63.10;;;;;;6101069;23;20036;-66
2022/11/18 22:58:58;;;;;;;;;;;20.60;63.10;;;;;;6126431;23;19905;-66
2022/11/18 23:01:24;;;;;;;;;;;20.60;63.70;;;;;;6126464;23;19960;-66
2022/11/18 23:03:51;;;;;;;;;;;20.70;64.20;;;;;;6126662;23;20343;-66
2022/11/18 23:06:18;;;;;;;;;;;20.80;64.70;;;;;;6126519;23;19917;-66
2022/11/18 23:08:45;;;;;;;;;;;20.90;65.20;;;;;;6101089;23;19905;-67
2022/11/18 23:11:12;;;;;;;;;;;21.00;64.00;;;;;;6126467;23;20251;-66
2022/11/18 23:14:02;;;;;;;;;;;21.10;63.90;;;;;;6100799;23;20320;-67
2022/11/18 23:16:32;;;;;;;;;;;21.20;62.60;;;;;;6126509;23;19940;-67
2022/11/18 23:18:59;;;;;;;;;;;21.20;62.30;;;;;;6101228;23;20347;-66
2022/11/18 23:21:25;;;;;;;;;;;21.20;62.20;;;;;;6100904;23;19911;-66
2022/11/18 23:23:52;;;;;;;;;;;21.20;62.80;;;;;;6126724;23;20299;-66
2022/11/18 23:26:19;;;;;;;;;;;21.20;62.20;;;;;;6126288;23;20392;-66
2022/11/18 23:28:45;;;;;;;;;;;21.10;61.20;;;;;;6100625;23;20281;-67
2022/11/18 23:31:16;;;;;;;;;;;21.10;62.50;;;;;;6101019;23;19904;-67
2022/11/18 23:33:44;;;;;;;;;;;21.20;63.40;;;;;;6100684;23;19905;-67
2022/11/18 23:36:11;;;;;;;;;;;21.20;62.50;;;;;;6100338;23;19905;-67
2022/11/18 23:38:38;;;;;;;;;;;21.20;62.60;;;;;;6126409;23;19960;-67
2022/11/18 23:41:05;;;;;;;;;;;21.20;62.50;;;;;;6100827;23;19912;-67
2022/11/18 23:43:32;;;;;;;;;;;21.10;63.40;;;;;;6126284;23;20000;-67
2022/11/18 23:45:58;;;;;;;;;;;21.00;63.30;;;;;;6126140;23;19905;-67
2022/11/18 23:48:25;;;;;;;;;;;21.10;63.40;;;;;;6126531;23;20347;-67
2022/11/18 23:50:55;;;;;;;;;;;21.10;63.40;;;;;;6126288;23;20210;-67
2022/11/18 23:53:22;;;;;;;;;;;21.10;63.10;;;;;;6126400;23;20214;-67
2022/11/18 23:55:48;;;;;;;;;;;21.20;63.30;;;;;;6126162;23;20248;-67
2022/11/18 23:58:15;;;;;;;;;;;21.20;63.90;;;;;;6125820;23;19920;-67
